createdAt,value
2022-12-09T00:01:07.622Z,42.15
2022-12-09T00:04:10.932Z,38.00
2022-12-09T00:07:15.655Z,40.13
2022-12-09T00:10:19.337Z,36.22
2022-12-09T00:13:22.532Z,35.30
2022-12-09T00:16:26.710Z,36.42
2022-12-09T00:19:30.454Z,34.47
2022-12-09T00:22:35.431Z,34.75
2022-12-09T00:25:39.087Z,35.80
2022-12-09T00:28:42.617Z,35.22
2022-12-09T00:31:45.977Z,33.63
2022-12-09T00:34:50.341Z,33.75
2022-12-09T00:37:54.867Z,35.33
2022-12-09T00:40:58.376Z,34.30
2022-12-09T00:44:01.823Z,33.38
2022-12-09T00:47:05.320Z,32.83
2022-12-09T00:50:09.877Z,30.92
2022-12-09T00:53:14.735Z,30.35
2022-12-09T00:56:17.969Z,29.90
2022-12-09T00:59:21.231Z,31.48
2022-12-09T01:02:24.777Z,30.38
2022-12-09T01:05:28.157Z,30.50
2022-12-09T01:08:33.048Z,33.75
2022-12-09T01:11:37.762Z,30.50
2022-12-09T01:14:42.137Z,31.63
2022-12-09T01:17:45.493Z,30.40
2022-12-09T01:20:57.956Z,29.40
2022-12-09T01:24:10.271Z,30.90
2022-12-09T01:27:14.960Z,29.80
2022-12-09T01:30:18.388Z,27.08
2022-12-09T01:33:22.209Z,27.95
2022-12-09T01:36:27.406Z,24.88
2022-12-09T01:39:32.072Z,24.23
2022-12-09T01:42:35.602Z,26.83
2022-12-09T01:45:42.312Z,27.98
2022-12-09T01:48:47.313Z,26.02
2022-12-09T01:55:16.359Z,38.15
2022-12-09T01:58:20.821Z,33.10
2022-12-09T02:01:24.545Z,32.00
2022-12-09T02:04:30.030Z,35.67
2022-12-09T02:07:34.396Z,30.67
2022-12-09T02:10:44.616Z,32.00
2022-12-09T02:13:56.009Z,27.23
2022-12-09T02:17:14.250Z,27.30
2022-12-09T02:20:24.844Z,30.38
2022-12-09T02:23:34.433Z,26.70
2022-12-09T02:26:45.234Z,18.00
2022-12-09T02:30:07.143Z,22.33
2022-12-09T02:33:27.518Z,21.65
2022-12-09T02:36:38.746Z,18.63
2022-12-09T02:39:51.222Z,18.33
2022-12-09T02:42:58.193Z,16.55
2022-12-09T02:46:03.021Z,17.75
2022-12-09T02:49:07.514Z,18.83
2022-12-09T02:52:13.859Z,19.90
2022-12-09T02:55:20.507Z,16.42
2022-12-09T02:58:27.940Z,18.55
2022-12-09T03:01:37.848Z,17.55
2022-12-09T03:04:43.937Z,17.83
2022-12-09T03:07:56.858Z,18.27
2022-12-09T03:11:03.044Z,18.38
2022-12-09T03:14:11.927Z,18.05
2022-12-09T03:17:19.713Z,14.43
2022-12-09T03:20:27.794Z,14.80
2022-12-09T03:23:33.831Z,15.52
2022-12-09T03:26:39.700Z,19.23
2022-12-09T03:29:48.220Z,18.88
2022-12-09T03:32:53.610Z,17.15
2022-12-09T03:36:00.387Z,18.55
2022-12-09T03:39:07.004Z,17.70
2022-12-09T03:42:16.930Z,19.70
2022-12-09T03:45:23.616Z,18.42
2022-12-09T03:48:27.346Z,19.35
2022-12-09T03:51:35.876Z,20.45
2022-12-09T03:54:45.388Z,18.85
2022-12-09T03:57:52.368Z,17.07
2022-12-09T04:00:57.398Z,17.38
2022-12-09T04:04:01.048Z,17.63
2022-12-09T04:07:04.460Z,22.33
2022-12-09T04:10:11.072Z,17.73
2022-12-09T04:13:14.469Z,20.27
2022-12-09T04:16:17.938Z,16.85
2022-12-09T04:19:21.233Z,21.95
2022-12-09T04:22:27.511Z,16.30
2022-12-09T04:25:40.241Z,17.70
2022-12-09T04:28:44.096Z,18.10
2022-12-09T04:31:47.872Z,19.67
2022-12-09T04:34:51.341Z,20.05
2022-12-09T04:37:55.582Z,19.17
2022-12-09T04:41:02.462Z,19.23
2022-12-09T04:44:06.498Z,17.80
2022-12-09T04:47:09.957Z,17.55
2022-12-09T04:50:14.408Z,19.95
2022-12-09T04:53:18.856Z,19.90
2022-12-09T04:56:23.883Z,20.73
2022-12-09T04:59:29.517Z,20.17
2022-12-09T05:02:36.316Z,19.55
2022-12-09T05:05:41.927Z,18.92
2022-12-09T05:08:45.970Z,22.08
2022-12-09T05:11:52.425Z,24.40
2022-12-09T05:14:55.792Z,21.83
2022-12-09T05:18:02.514Z,22.95
2022-12-09T05:21:08.168Z,24.20
2022-12-09T05:24:11.822Z,25.08
2022-12-09T05:27:16.799Z,29.33
2022-12-09T05:30:20.251Z,25.30
2022-12-09T05:33:23.776Z,25.40
2022-12-09T05:36:29.098Z,29.92
2022-12-09T05:39:32.725Z,25.77
2022-12-09T05:42:41.297Z,27.95
2022-12-09T05:45:46.066Z,21.17
2022-12-09T05:48:49.951Z,23.95
2022-12-09T05:51:54.289Z,23.55
2022-12-09T05:54:57.641Z,26.17
2022-12-09T05:58:02.283Z,23.25
2022-12-09T06:01:07.203Z,30.08
2022-12-09T06:04:11.088Z,25.58
2022-12-09T06:07:14.970Z,26.92
2022-12-09T06:10:18.959Z,27.10
2022-12-09T06:13:24.004Z,65.68
2022-12-09T06:16:27.709Z,118.80
2022-12-09T06:19:31.725Z,112.00
2022-12-09T06:22:35.841Z,149.23
2022-12-09T06:25:39.331Z,94.85
2022-12-09T06:28:44.021Z,34.08
2022-12-09T06:31:47.547Z,36.97
2022-12-09T06:34:50.889Z,59.70
2022-12-09T06:37:54.700Z,44.75
2022-12-09T06:40:58.334Z,48.10
2022-12-09T06:44:02.952Z,46.38
2022-12-09T06:47:06.855Z,47.47
2022-12-09T06:50:11.121Z,36.50
2022-12-09T06:53:15.426Z,41.75
2022-12-09T06:56:21.654Z,38.88
2022-12-09T06:59:26.402Z,32.03
2022-12-09T07:02:35.424Z,34.83
2022-12-09T07:05:39.654Z,39.25
2022-12-09T07:08:43.589Z,40.63
2022-12-09T07:11:48.282Z,37.95
2022-12-09T07:14:53.415Z,33.78
2022-12-09T07:17:57.120Z,34.67
2022-12-09T07:21:07.476Z,55.53
2022-12-09T07:27:19.649Z,41.25
2022-12-09T07:30:25.021Z,47.38
2022-12-09T07:33:29.600Z,32.33
2022-12-09T07:36:35.190Z,32.25
2022-12-09T07:39:38.855Z,36.78
2022-12-09T07:42:42.318Z,36.42
2022-12-09T07:45:49.237Z,36.70
2022-12-09T07:48:52.977Z,31.15
2022-12-09T07:51:56.846Z,32.65
2022-12-09T07:55:01.619Z,34.30
2022-12-09T07:58:05.105Z,29.30
2022-12-09T08:01:11.432Z,37.80
2022-12-09T08:04:16.393Z,35.22
2022-12-09T08:07:20.142Z,34.63
2022-12-09T08:10:23.862Z,38.45
2022-12-09T08:13:27.411Z,39.38
2022-12-09T08:16:32.209Z,42.03
2022-12-09T08:19:36.305Z,58.70
2022-12-09T08:22:39.848Z,47.67
2022-12-09T08:25:43.329Z,43.35
2022-12-09T08:28:47.770Z,60.70
2022-12-09T08:31:52.957Z,55.13
2022-12-09T08:34:56.840Z,39.40
2022-12-09T08:38:00.994Z,44.67
2022-12-09T08:41:10.551Z,48.28
2022-12-09T08:44:16.184Z,55.13
2022-12-09T08:47:21.329Z,38.78
2022-12-09T08:50:25.156Z,38.08
2022-12-09T08:53:29.039Z,38.05
2022-12-09T08:56:32.920Z,43.55
2022-12-09T08:59:41.830Z,41.88
2022-12-09T09:02:50.021Z,41.53
2022-12-09T09:05:54.138Z,31.17
2022-12-09T09:08:58.290Z,32.08
2022-12-09T09:12:02.724Z,32.47
2022-12-09T09:15:07.716Z,28.70
2022-12-09T09:18:12.630Z,34.88
2022-12-09T09:22:20.331Z,34.33
2022-12-09T09:25:23.710Z,31.58
2022-12-09T09:28:30.918Z,34.47
2022-12-09T09:31:35.795Z,30.73
2022-12-09T09:34:40.945Z,32.22
2022-12-09T09:37:44.619Z,32.38
2022-12-09T09:40:47.915Z,30.92
2022-12-09T09:43:52.498Z,33.08
2022-12-09T09:46:57.561Z,29.40
2022-12-09T09:50:07.705Z,28.63
2022-12-09T09:53:19.506Z,33.42
2022-12-09T09:56:29.272Z,31.95
2022-12-09T09:59:44.447Z,31.38
2022-12-09T10:03:00.861Z,33.45
2022-12-09T10:06:12.936Z,31.45
2022-12-09T10:09:23.880Z,37.75
2022-12-09T10:12:38.134Z,34.38
2022-12-09T10:15:49.224Z,32.38
2022-12-09T10:19:09.332Z,37.45
2022-12-09T10:25:23.252Z,37.95
2022-12-09T10:28:30.657Z,46.47
2022-12-09T10:31:34.447Z,36.33
2022-12-09T10:34:38.178Z,39.80
2022-12-09T10:37:43.096Z,38.95
2022-12-09T10:40:57.124Z,45.65
2022-12-09T10:44:18.962Z,39.88
2022-12-09T10:47:25.919Z,38.40
2022-12-09T10:50:36.411Z,35.35
2022-12-09T10:53:46.738Z,37.13
2022-12-09T10:57:08.199Z,36.47
2022-12-09T11:00:29.643Z,37.00
2022-12-09T11:03:39.723Z,36.00
2022-12-09T11:06:43.449Z,35.42
2022-12-09T11:09:52.300Z,35.85
2022-12-09T11:13:01.078Z,38.33
2022-12-09T11:16:08.102Z,35.72
2022-12-09T11:19:15.894Z,42.85
2022-12-09T11:22:39.506Z,131.13
2022-12-09T11:25:55.732Z,81.32
2022-12-09T11:29:06.103Z,47.20
2022-12-09T11:35:19.120Z,37.30
2022-12-09T11:38:39.747Z,36.13
2022-12-09T11:42:12.976Z,39.40
2022-12-09T11:45:24.088Z,36.53
2022-12-09T11:48:34.970Z,49.13
2022-12-09T11:51:43.683Z,35.15
2022-12-09T11:54:53.839Z,33.40
2022-12-09T11:58:02.252Z,38.20
2022-12-09T12:01:10.251Z,33.80
2022-12-09T12:04:17.195Z,36.45
2022-12-09T12:07:27.272Z,30.15
2022-12-09T12:10:36.023Z,33.17
2022-12-09T12:13:46.104Z,30.15
2022-12-09T12:16:58.784Z,36.90
2022-12-09T12:20:02.042Z,30.77
2022-12-09T12:23:23.628Z,36.83
2022-12-09T12:26:31.695Z,34.42
2022-12-09T12:29:47.084Z,32.30
2022-12-09T12:33:52.990Z,30.88
2022-12-09T12:36:31.445Z,33.80
2022-12-09T12:39:49.506Z,31.58
2022-12-09T12:43:19.084Z,30.52
2022-12-09T12:46:33.443Z,28.83
2022-12-09T12:50:03.030Z,31.13
2022-12-09T12:53:23.163Z,26.43
2022-12-09T12:56:31.828Z,27.38
2022-12-09T12:59:43.911Z,28.13
2022-12-09T13:03:03.077Z,29.27
2022-12-09T13:06:13.409Z,33.40
2022-12-09T13:09:23.289Z,39.72
2022-12-09T13:12:44.131Z,41.40
2022-12-09T13:15:51.702Z,41.58
2022-12-09T13:19:06.873Z,49.55
2022-12-09T13:22:19.498Z,78.43
2022-12-09T13:25:29.255Z,106.53
2022-12-09T13:28:40.533Z,66.68
2022-12-09T13:31:52.219Z,59.78
2022-12-09T13:35:03.539Z,67.40
2022-12-09T13:38:26.474Z,52.47
2022-12-09T13:41:58.826Z,60.92
2022-12-09T13:45:06.965Z,89.00
2022-12-09T13:48:43.057Z,47.50
2022-12-09T13:51:51.523Z,44.92
2022-12-09T13:54:55.310Z,49.28
2022-12-09T13:58:14.873Z,52.33
2022-12-09T14:01:23.462Z,41.63
2022-12-09T14:04:29.609Z,63.53
2022-12-09T14:07:41.897Z,100.85
2022-12-09T14:10:49.702Z,115.00
2022-12-09T14:13:52.986Z,131.80
2022-12-09T14:16:57.145Z,116.50
2022-12-09T14:20:03.684Z,133.65
2022-12-09T14:23:16.886Z,118.90
2022-12-09T14:26:35.149Z,107.47
2022-12-09T14:29:51.321Z,93.78
2022-12-09T14:32:56.165Z,128.73
2022-12-09T14:36:04.059Z,132.43
2022-12-09T14:39:26.766Z,132.13
2022-12-09T14:42:42.646Z,133.75
2022-12-09T14:45:52.266Z,124.95
2022-12-09T14:48:58.680Z,135.95
2022-12-09T14:52:04.899Z,125.90
2022-12-09T14:55:16.417Z,119.53
2022-12-09T14:58:22.115Z,123.20
2022-12-09T15:01:25.872Z,119.05
2022-12-09T15:04:34.191Z,121.60
2022-12-09T15:07:44.515Z,124.55
2022-12-09T15:13:55.936Z,160.75
2022-12-09T15:16:59.888Z,147.20
2022-12-09T15:20:04.336Z,159.63
2022-12-09T15:23:16.365Z,151.60
2022-12-09T15:26:23.676Z,157.15
2022-12-09T15:29:31.680Z,158.82
2022-12-09T15:32:39.612Z,168.15
2022-12-09T15:35:45.193Z,158.50
2022-12-09T15:38:52.683Z,155.07
2022-12-09T15:42:10.705Z,156.00
2022-12-09T15:45:17.120Z,162.25
2022-12-09T15:48:24.314Z,161.15
2022-12-09T15:51:29.624Z,171.75
2022-12-09T15:54:36.841Z,150.10
2022-12-09T15:57:42.722Z,163.13
2022-12-09T16:00:49.086Z,166.05
2022-12-09T16:03:53.870Z,166.70
2022-12-09T16:06:57.688Z,162.73
2022-12-09T16:10:12.577Z,203.48
2022-12-09T16:13:19.703Z,193.43
2022-12-09T16:16:31.156Z,202.73
2022-12-09T16:19:38.239Z,187.20
2022-12-09T16:22:43.389Z,183.23
2022-12-09T16:25:50.338Z,209.85
2022-12-09T16:29:01.387Z,190.90
2022-12-09T16:32:25.173Z,179.57
2022-12-09T16:35:33.290Z,193.80
2022-12-09T16:38:38.390Z,202.10
2022-12-09T16:41:58.770Z,220.15
2022-12-09T16:48:28.362Z,214.88
2022-12-09T16:51:31.988Z,224.13
2022-12-09T16:54:35.361Z,208.45
2022-12-09T16:57:38.582Z,219.90
2022-12-09T17:00:43.494Z,250.20
2022-12-09T17:03:49.806Z,269.25
2022-12-09T17:06:53.718Z,248.52
2022-12-09T17:09:58.076Z,233.23
2022-12-09T17:13:02.803Z,231.45
2022-12-09T17:16:08.834Z,230.27
2022-12-09T17:19:12.667Z,213.05
2022-12-09T17:22:16.045Z,197.27
2022-12-09T17:25:19.705Z,196.65
2022-12-09T17:28:28.494Z,191.48
2022-12-09T17:31:34.755Z,236.45
2022-12-09T17:34:38.178Z,244.45
2022-12-09T17:37:41.356Z,208.40
2022-12-09T17:40:44.837Z,247.30
2022-12-09T17:43:48.267Z,242.00
2022-12-09T17:46:53.076Z,232.05
2022-12-09T17:49:56.396Z,214.18
2022-12-09T17:52:59.912Z,204.20
2022-12-09T17:56:17.564Z,182.82
2022-12-09T17:59:23.912Z,169.35
2022-12-09T18:02:28.654Z,192.30
2022-12-09T18:05:31.915Z,188.20
2022-12-09T18:08:35.582Z,203.63
2022-12-09T18:11:41.283Z,191.30
2022-12-09T18:14:44.573Z,185.13
2022-12-09T18:17:49.111Z,180.48
2022-12-09T18:20:52.497Z,179.80
2022-12-09T18:23:56.253Z,176.38
2022-12-09T18:27:00.092Z,186.02
2022-12-09T18:30:03.396Z,183.57
2022-12-09T18:33:08.054Z,196.68
2022-12-09T18:36:13.858Z,197.05
2022-12-09T18:39:17.139Z,175.75
2022-12-09T18:42:20.866Z,180.30
2022-12-09T18:45:24.211Z,171.85
2022-12-09T18:48:28.978Z,174.38
2022-12-09T18:51:34.806Z,188.25
2022-12-09T18:54:38.208Z,175.85
2022-12-09T18:57:41.462Z,179.88
2022-12-09T19:00:44.891Z,159.60
2022-12-09T19:03:49.822Z,175.82
2022-12-09T19:06:55.279Z,168.63
2022-12-09T19:09:58.685Z,229.07
2022-12-09T19:13:02.616Z,528.03
2022-12-09T19:16:06.963Z,660.50
2022-12-09T19:19:14.416Z,546.20
2022-12-09T19:22:17.899Z,295.70
2022-12-09T19:25:21.165Z,188.77
2022-12-09T19:28:24.416Z,186.75
2022-12-09T19:31:31.309Z,171.25
2022-12-09T19:34:36.299Z,171.88
2022-12-09T19:37:39.756Z,170.50
2022-12-09T19:40:43.692Z,173.07
2022-12-09T19:43:47.318Z,218.02
2022-12-09T19:46:50.891Z,282.95
2022-12-09T19:49:55.495Z,237.05
2022-12-09T19:52:59.830Z,206.73
2022-12-09T19:56:04.120Z,173.18
2022-12-09T19:59:08.218Z,167.25
2022-12-09T20:02:14.157Z,156.48
2022-12-09T20:05:19.494Z,156.98
2022-12-09T20:08:25.050Z,163.82
2022-12-09T20:11:28.697Z,199.45
2022-12-09T20:14:32.064Z,257.65
2022-12-09T20:17:35.598Z,192.82
2022-12-09T20:20:44.320Z,172.77
2022-12-09T20:23:53.436Z,174.93
2022-12-09T20:26:56.727Z,161.95
2022-12-09T20:30:00.228Z,159.32
2022-12-09T20:33:03.785Z,158.73
2022-12-09T20:36:10.658Z,165.57
2022-12-09T20:39:19.030Z,181.57
2022-12-09T20:42:22.451Z,172.55
2022-12-09T20:45:25.836Z,178.00
2022-12-09T20:48:29.044Z,176.18
2022-12-09T20:51:35.988Z,182.30
2022-12-09T20:54:39.282Z,173.90
2022-12-09T20:57:42.809Z,162.55
2022-12-09T21:00:46.183Z,155.23
2022-12-09T21:03:50.743Z,151.05
2022-12-09T21:06:55.644Z,149.55
2022-12-09T21:09:58.952Z,143.18
2022-12-09T21:13:02.435Z,139.07
2022-12-09T21:16:07.591Z,131.95
2022-12-09T21:19:15.731Z,142.68
2022-12-09T21:22:21.153Z,131.80
2022-12-09T21:25:24.591Z,138.15
2022-12-09T21:28:29.344Z,130.48
2022-12-09T21:31:34.224Z,139.80
2022-12-09T21:34:37.534Z,127.68
2022-12-09T21:37:42.306Z,132.65
2022-12-09T21:40:45.764Z,133.88
2022-12-09T21:43:49.372Z,133.40
2022-12-09T21:46:52.607Z,140.90
2022-12-09T21:49:55.955Z,135.18
2022-12-09T21:53:00.955Z,135.80
2022-12-09T21:56:05.929Z,142.68
2022-12-09T21:59:11.380Z,126.05
2022-12-09T22:02:15.129Z,127.13
2022-12-09T22:05:18.897Z,122.85
2022-12-09T22:08:23.840Z,118.72
2022-12-09T22:11:28.388Z,118.40
2022-12-09T22:14:31.963Z,114.35
2022-12-09T22:17:35.939Z,103.78
2022-12-09T22:24:07.474Z,98.25
2022-12-09T22:27:11.030Z,98.57
2022-12-09T22:30:16.057Z,97.03
2022-12-09T22:33:19.390Z,91.40
2022-12-09T22:36:24.284Z,89.50
2022-12-09T22:39:29.072Z,85.22
2022-12-09T22:42:33.128Z,84.07
2022-12-09T22:45:37.094Z,77.90
2022-12-09T22:48:41.387Z,84.32
2022-12-09T22:51:46.348Z,82.50
2022-12-09T22:54:51.737Z,76.15
2022-12-09T22:57:54.943Z,75.93
2022-12-09T23:00:58.780Z,75.75
2022-12-09T23:04:02.693Z,67.75
2022-12-09T23:07:06.794Z,70.88
2022-12-09T23:10:12.602Z,74.05
2022-12-09T23:13:15.927Z,67.25
2022-12-09T23:16:22.263Z,62.67
2022-12-09T23:19:26.144Z,66.32
2022-12-09T23:22:29.482Z,67.05
2022-12-09T23:25:34.403Z,64.15
2022-12-09T23:28:38.161Z,61.95
2022-12-09T23:31:42.351Z,62.85
2022-12-09T23:34:45.737Z,61.63
2022-12-09T23:37:49.041Z,57.90
2022-12-09T23:40:54.359Z,57.65
2022-12-09T23:43:58.403Z,54.17
2022-12-09T23:47:01.814Z,51.65
2022-12-09T23:50:06.281Z,51.50
2022-12-09T23:53:09.787Z,52.90
2022-12-09T23:56:16.267Z,51.75
2022-12-09T23:59:21.829Z,55.35
